Timeline UpdatesTrip UpdatesNews PostsPvt Posts♥♥Travel TipsAdmin PostsConv PostsFollowed PostsChat RequestsBlog PostsPNR Posts

Disclaimer
Search
 
 
Fri Oct 24, 2014 17:34:17 ISTHomeTrainsΣChainsAtlasPNRForumGalleryNewsFAQTripsMembersLoginFeedback
No Recent News for this Train
Other Trains in the News **new
Latest...
.
Sat Sep 13, 2014 (05:35PM)
⇐ Return Journey: Train# 58418

58417/Puri Gunupur Passenger (UnReserved)

Time-Table HAS CHANGED.
Sep 13 2014 (5:35PM)
Change Departure Station:
Change Arrival Station:
Post a Train Travel TipPost a Train Travel Tip **new
Post a Comment/Question/Picture/VideoPost a Comment/Question/Picture/Video
Pantry/Catering
✕ NO Pantry Car
✕ NO Catering
Loco/Rake Reversals
KUR/Khurda Road Junction (7);
RSA - Rake Sharing
Rake/Coach Composition
This train will run with 08 coaches i.e. Two Guard cum luggage vans, 05 General Second Class coaches and One Parcel Van.
Loco
News    PNR    Forum    Time-Table    Availability    Fare Chart    Map    Arr/Dep History    Trips    Gallery    ΣChains    X/O    Timeline    
Travel Time: 1h 17m    9 halts    Distance: 44 km    Avg Speed: 34 km/hr
Type: Passenger
Zone: ECoR/East Coast
Departs @ 08:00 (Avg 5m late)
Platform# ???
SMTWTFS
Puri/PURI 
Arrives @ 09:17 (Avg 12m late)
Platform# ???
SMTWTFS
Khurda Road Junction/KUR 

9 halts. 9 intermediate Stations between Puri and Khurda Road Junction

Show ALL intermediate Stations  Show Old Time-Table

#TrkCodeStation NameX/OArrivesAvgDepartsAvgHaltPFDay#KmSpeedElevZoneAddress
1%==%PURIPuri (5)»  -08:30 08:00+5--10.03712mECoRPuri, Odisha
2%==%MLTMalatipatpur (1)  08:42 08:12+708:44 08:13+72 1m117.33715mECoRPuri, Odisha
3%==%JKDPJankidaipur  08:48 08:18-08:49 08:19-1m--110.46013mECoRChandanpur, Odisha
4%==%SILSakhi Gopal (3)X  08:55 08:25+808:56 08:26+91m--116.46710mECoRPuri, Odisha
5%==%BRSTBir Purushottampur  09:01 08:31+1309:02 08:32+141m--122.06712mECoRSatasankha, Odisha
6/==/JERD new halt!!  08:36-08:37-1m--126.426 ???
7%==/DEGDelang  09:13 08:43+1509:14 08:44+151m--129.0449mECoRKhordha, Odisha
8/==/KASRKanas Road  09:19 08:49-09:20 08:50-1m--132.7429mECoRKhordha, Odisha
9/==/MWQMotari Halt  09:25 08:55+1809:26 08:56+181m--136.24612mECoRMotari, Odisha
10/==/HPGMHaripur GramX  09:33 09:03-09:34 09:04-1m--141.51222mECoRKhordha, Odisha
11/==/KURKhurda Road Junction (7)•X09:50 09:17+1210:10 09:35+2720 18m--144.25325mECoRKhordha, Odisha
12/==/ARGLArgul P.H.  10:16 09:41-10:17 09:42-1m--149.54024mECoRKhordha, Odisha
13/==/KPXRKaipadar Road  10:23 09:48+2610:24 09:49+271m--153.56822mECoRKaipada Road, Odisha
14/==/DLMHDhaulimuhanX  10:28 09:53-10:29 09:54-1m--158.04621mECoRKhordha, Odisha
15/==/TAPTapang  10:34 09:59+2910:35 10:00+291m--161.87215mECoRKhordha, Odisha
16/==/GLBAGolabai  10:39 10:04-10:40 10:05-1m--166.64813mECoRKhordha, Odisha
17/==/NKPNirakarpurX  10:45 10:10+3010:46 10:11+311m--170.67121mECoRNirakarpur, Odisha
18/==/BSDPBhusandpurX  10:52 10:17+3110:53 10:18+311m--177.76620mECoRBhushandapur, Odisha
19/==/MKTPMuketashwarX  10:58 10:23-10:59 10:24-1m--183.25213mECoRKhordha, Odisha
20/==/KAPGKalupara Ghat  11:04 10:29+3111:05 10:30+321m--187.66710mECoRChandeswar, Odisha
21/==/KUUKuhuri  11:11 10:36+3411:12 10:37+341m--194.36826mECoRKhordha, Odisha
22/==/GNGDGangadharpurX  11:19 10:44+3511:20 10:45+351m--1102.36222mECoRKhordha, Odisha
23/==/SLZSolari  11:25 10:50+3711:26 10:51+371m--1107.45218mECoRSolari, Odisha
24/==/BALUBalugaon (3)X  11:35 11:00+3011:40 11:05+335m--1115.27211mECoR752030, Odisha
25/==/CLKAChilka  11:46 11:11+3811:47 11:12+391m--1122.57725mECoRBarkul, Odisha
26/==/KLJIKalijai  11:51 11:16+3811:52 11:17+381m--1127.63611mECoRGarh, Odisha
27/==/KITKhallikot (3)  11:57 11:25+3911:58 11:26+411m--1132.57513mECoRKhallikot, Odisha
28/==/RBARambha  12:07 11:35+4212:08 11:36+441m--1143.77414mECoRGanjam District, Odisha
29/==/HMAHummaX  12:17 11:45+4612:18 11:46+471m--1154.77519mECoRGanjam District, Odisha
30/==/GAMGanjamO  12:23 11:51+4912:24 11:52+511m--1161.0608mECoRGanjam, Odisha
31/==/CAPCChatrapur Court (2)  12:32 12:00-12:33 12:01-1m--1168.91432mECoRChatrapur, Odisha
32/==/CAPChatrapur  12:37 12:05+4112:42 12:06+415 1m--1169.93736mECoRChatrapur, Odisha
33/==/NRSPNarasimhapura  12:48 12:12-12:49 12:13-1m--1173.610850mECoRGanjam, Odisha
34/==/JNPJagan NathapurX  12:54 12:18+5212:55 12:19+521m--1182.64829mECoRBerhampur, Odisha
35/==/BAMBrahmapur (3)X  13:05 12:30+4413:15 12:35+4610 5m21191.37127mECoRBerhampur, Odisha
36/==/GTAGolanthraX  13:24 12:44+1:0113:25 12:45+1:071m--1202.05328mECoRGanjam, Odisha
37/==/SLRDSurla Road  13:31 12:51+1:1013:33 12:52+1:102 1m--1207.35118mECoRGanjam, Odisha
38/==/IPMIchchapuram  13:41 13:02+1:1313:42 13:03+1:151m--1215.87921mECoRIchchapuram, Andhra Pradesh
39/==/JPIJhadupudi  13:51 13:12+1:1013:52 13:13+1:101m--1227.67538mECoRSrikakulam, Andhra Pradesh
40/==/SPTSompeta (4)  13:57 13:18+1:0413:58 13:19+1:121m--1233.87148mECoRKanchili, Andhra Pradesh
41/==/BAVBaruva  14:07 13:27+1:2414:08 13:28+1:271m--1243.28117mECoRSrikakulam, Andhra Pradesh
42/==/MMSMandasa Road  14:15 13:35+1:4014:16 13:36+1:431m--1252.66538mECoRSrikakulam, Andhra Pradesh
43/==/SUDVSummadeviX  14:23 13:42+1:3014:24 13:43+1:321m--1259.1558mECoRSummadevi, Andhra Pradesh
44/==/PSAPalasa (3)XO  15:25 15:10+3816:00+3535 50m31265.66131mECoRKasibugga, Andhra Pradesh
45/==/PUNPundiX  16:12+4016:14+402m--1277.95438mECoRSrikakulam, Andhra Pradesh
46/==/RMZRouthpuram HaltX  16:21-16:22-1m--1284.23312mECoRSrikakulam, Andhra Pradesh
47/==/NWPNaupada Junction  16:35+3516:45 17:10+2810 35m--1291.43913mECoRNuapada . ph.no. 08945-249728, Andhra Pradesh
48|--|TEKTekkali Halt  16:55 17:20-16:56 17:21-1m--1298.03436mECoRTekkali, Andhra Pradesh
49|--|PDSNPeddasana  17:05 17:30-17:06 17:31-1m--1303.14226mECoRNational Highway 5, Andhra Pradesh
50|--|TMBTemburu  17:19 17:44-17:20 17:45-1m--1312.13276mECoRParalakhemundi, Andhra Pradesh
51|--|GVAGanguwada  17:28 17:53-17:29 17:54-1m--1316.54578mECoRGanguwada, Andhra Pradesh
52|--|PHMPatapatnam  17:43 18:07-17:44 18:08-1m--1326.32268mECoRSrikakulam District, Andhra Pradesh
53|--|PLHParlakhemundi (1)  18:00 18:20-18:02 18:22-2m11330.74460mECoRParalakhemundi, Odisha
54|--|SPRMSitapuram Halt  18:22 18:39-18:23 18:40-1m--1343.13258mECoRParalakhemundi, Odisha
55|--|HBFHadobhangi Halt  18:31 18:48-18:32 18:49-1m--1347.43968mECoRParalakhemundi, Odisha
56|--|KNGRKashinagar Halt  18:45 19:02-18:46 19:03-1m--1355.93762mECoRKashinagar, Odisha
57|--|LRILihuri Halt  18:57 19:14-18:58 19:15-1m--1362.73969mECoRAcross River Vamsadhara, Odisha
58|--|BSDRBansadhara Halt  19:09 19:26-19:10 19:27-1m--1369.73678mECoRBansadhara Halt Railway Station, Odisha
59|--|PLSGPalasingi  19:19 19:36-19:20 19:37-1m--1375.11287mECoRDistt Gajapati, Odisha
60|--|GNPRGunupur  19:45 20:10+13---1381.5-92mECoRGunupur, Odisha
Scroll to Top
Scroll to Bottom